Terminal Aerodrome Forecast
Issued by NWS Charleston, WV

Current Version | Previous Version | Text Only | Print | Product List | Glossary Off
Versions: 1 2 3 4 5 6 7 8 9 10 11 12 13 14 15 16 17 18 19 20 21 22

000
FTUS41 KRLX 210252 AAA
TAFPKB
TAF AMD
KPKB 210252Z 2103/2124 21003KT P6SM SCT070
     FM210600 00000KT P6SM SCT100
     FM211400 25007KT P6SM BKN070=

USA.gov is the U.S. government's official web portal to all federal, state and local government web resources and services.